createdAt,value
2023-05-02T00:00:59.049Z,4.72
2023-05-02T00:03:26.384Z,3.70
2023-05-02T00:05:53.582Z,3.22
2023-05-02T00:08:20.794Z,3.83
2023-05-02T00:10:47.912Z,3.55
2023-05-02T00:13:15.245Z,4.75
2023-05-02T00:15:42.375Z,3.45
2023-05-02T00:18:10.231Z,3.20
2023-05-02T00:20:37.458Z,3.50
2023-05-02T00:23:04.776Z,3.25
2023-05-02T00:25:32.048Z,3.67
2023-05-02T00:27:59.143Z,3.10
2023-05-02T00:30:26.278Z,2.55
2023-05-02T00:32:54.268Z,5.85
2023-05-02T00:35:21.507Z,3.10
2023-05-02T00:37:48.601Z,4.03
2023-05-02T00:40:15.755Z,3.28
2023-05-02T00:42:42.877Z,5.50
2023-05-02T00:45:10.286Z,4.20
2023-05-02T00:47:37.508Z,2.65
2023-05-02T00:50:05.588Z,4.50
2023-05-02T00:52:33.680Z,3.13
2023-05-02T00:55:03.340Z,3.13
2023-05-02T00:57:30.783Z,2.95
2023-05-02T00:59:58.245Z,4.45
2023-05-02T01:02:34.929Z,3.35
2023-05-02T01:05:21.071Z,4.05
2023-05-02T01:07:48.280Z,3.67
2023-05-02T01:10:31.070Z,4.00
2023-05-02T01:13:08.504Z,3.53
2023-05-02T01:15:37.722Z,3.40
2023-05-02T01:18:05.872Z,3.92
2023-05-02T01:20:36.940Z,3.50
2023-05-02T01:23:07.689Z,3.70
2023-05-02T01:25:44.693Z,3.17
2023-05-02T01:28:38.163Z,3.20
2023-05-02T01:31:06.881Z,3.53
2023-05-02T01:33:36.433Z,3.50
2023-05-02T01:36:03.973Z,4.03
2023-05-02T01:38:31.862Z,4.93
2023-05-02T01:41:03.446Z,5.15
2023-05-02T01:43:31.070Z,3.67
2023-05-02T01:45:59.012Z,3.20
2023-05-02T01:48:28.683Z,3.83
2023-05-02T01:50:56.986Z,3.40
2023-05-02T01:53:25.928Z,2.92
2023-05-02T01:55:53.593Z,4.25
2023-05-02T01:58:21.564Z,3.92
2023-05-02T02:00:49.141Z,4.13
2023-05-02T02:03:18.524Z,3.47
2023-05-02T02:05:46.280Z,3.20
2023-05-02T02:08:13.404Z,3.28
2023-05-02T02:10:45.922Z,3.08
2023-05-02T02:13:20.635Z,3.70
2023-05-02T02:15:49.168Z,3.58
2023-05-02T02:18:21.486Z,3.20
2023-05-02T02:20:49.072Z,2.95
2023-05-02T02:23:16.696Z,3.45
2023-05-02T02:25:44.888Z,2.90
2023-05-02T02:28:12.145Z,3.65
2023-05-02T02:30:39.327Z,4.05
2023-05-02T02:33:06.626Z,3.63
2023-05-02T02:35:42.943Z,2.88
2023-05-02T02:38:10.049Z,3.20
2023-05-02T02:40:50.288Z,3.58
2023-05-02T02:43:36.316Z,3.67
2023-05-02T02:46:09.609Z,2.88
2023-05-02T02:48:38.287Z,2.83
2023-05-02T02:51:15.855Z,4.10
2023-05-02T02:53:43.041Z,3.33
2023-05-02T02:56:15.994Z,4.57
2023-05-02T02:59:05.240Z,3.03
2023-05-02T03:01:33.886Z,2.60
2023-05-02T03:04:03.136Z,3.50
2023-05-02T03:06:30.958Z,4.50
2023-05-02T03:08:58.197Z,3.10
2023-05-02T03:11:26.324Z,2.67
2023-05-02T03:13:54.591Z,3.90
2023-05-02T03:16:40.829Z,3.80
2023-05-02T03:19:08.644Z,2.88
2023-05-02T03:21:36.415Z,3.60
2023-05-02T03:24:04.577Z,3.17
2023-05-02T03:26:31.870Z,3.30
2023-05-02T03:28:59.240Z,3.97
2023-05-02T03:31:26.816Z,2.95
2023-05-02T03:33:54.505Z,3.75
2023-05-02T03:36:22.223Z,3.20
2023-05-02T03:38:49.373Z,3.05
2023-05-02T03:41:16.486Z,3.38
2023-05-02T03:43:43.621Z,2.65
2023-05-02T03:46:11.920Z,3.53
2023-05-02T03:48:39.416Z,2.92
2023-05-02T03:51:10.010Z,3.17
2023-05-02T03:53:37.467Z,2.78
2023-05-02T03:56:04.721Z,3.50
2023-05-02T03:58:31.847Z,3.65
2023-05-02T04:00:58.965Z,3.65
2023-05-02T04:03:29.299Z,3.00
2023-05-02T04:05:57.003Z,3.03
2023-05-02T04:08:24.184Z,3.28
2023-05-02T04:10:52.995Z,4.75
2023-05-02T04:13:20.193Z,2.92
2023-05-02T04:15:47.300Z,3.20
2023-05-02T04:18:14.467Z,3.10
2023-05-02T04:20:45.330Z,4.35
2023-05-02T04:23:12.469Z,4.22
2023-05-02T04:25:39.574Z,3.05
2023-05-02T04:28:06.879Z,2.70
2023-05-02T04:30:34.173Z,5.10
2023-05-02T04:33:01.398Z,4.85
2023-05-02T04:35:28.613Z,4.60
2023-05-02T04:37:56.133Z,3.35
2023-05-02T04:40:23.218Z,4.03
2023-05-02T04:42:50.344Z,3.63
2023-05-02T04:45:17.506Z,3.10
2023-05-02T04:47:44.654Z,3.30
2023-05-02T04:50:11.903Z,2.70
2023-05-02T04:52:39.550Z,3.17
2023-05-02T04:55:06.979Z,3.80
2023-05-02T04:57:34.151Z,3.00
2023-05-02T05:00:01.631Z,2.80
2023-05-02T05:02:29.132Z,2.90
2023-05-02T05:04:56.630Z,3.58
2023-05-02T05:07:23.851Z,4.75
2023-05-02T05:09:53.185Z,2.58
2023-05-02T05:12:20.614Z,3.00
2023-05-02T05:14:47.829Z,3.22
2023-05-02T05:17:14.939Z,2.95
2023-05-02T05:19:42.437Z,2.90
2023-05-02T05:22:09.896Z,3.92
2023-05-02T05:24:37.068Z,5.15
2023-05-02T05:27:04.512Z,3.03
2023-05-02T05:29:34.489Z,7.35
2023-05-02T05:32:01.733Z,3.47
2023-05-02T05:34:28.903Z,5.35
2023-05-02T05:36:56.093Z,3.20
2023-05-02T05:39:23.918Z,7.18
2023-05-02T05:41:51.168Z,3.70
2023-05-02T05:44:18.350Z,3.58
2023-05-02T05:46:45.485Z,4.15
2023-05-02T05:49:12.651Z,3.53
2023-05-02T05:51:39.757Z,3.90
2023-05-02T05:54:07.300Z,3.15
2023-05-02T05:56:34.429Z,3.20
2023-05-02T05:59:01.532Z,5.07
2023-05-02T06:01:28.646Z,4.90
2023-05-02T06:03:55.886Z,4.50
2023-05-02T06:06:23.151Z,4.32
2023-05-02T06:08:50.293Z,6.80
2023-05-02T06:11:17.410Z,4.13
2023-05-02T06:13:44.655Z,4.20
2023-05-02T06:16:11.780Z,4.85
2023-05-02T06:18:38.948Z,4.63
2023-05-02T06:21:06.660Z,3.47
2023-05-02T06:23:34.439Z,5.68
2023-05-02T06:26:01.961Z,4.10
2023-05-02T06:28:29.375Z,4.03
2023-05-02T06:30:59.906Z,4.32
2023-05-02T06:33:27.068Z,9.68
2023-05-02T06:35:54.320Z,4.38
2023-05-02T06:38:21.574Z,3.17
2023-05-02T06:40:49.137Z,5.63
2023-05-02T06:43:16.413Z,5.50
2023-05-02T06:45:43.953Z,3.33
2023-05-02T06:48:11.212Z,5.82
2023-05-02T06:50:38.546Z,3.63
2023-05-02T06:53:06.142Z,4.25
2023-05-02T06:55:33.355Z,3.95
2023-05-02T06:58:00.710Z,5.25
2023-05-02T07:00:27.905Z,4.85
2023-05-02T07:02:55.306Z,4.28
2023-05-02T07:05:22.515Z,4.35
2023-05-02T07:07:49.622Z,8.80
2023-05-02T07:10:16.812Z,3.80
2023-05-02T07:12:43.991Z,6.85
2023-05-02T07:15:11.328Z,6.03
2023-05-02T07:17:38.490Z,5.75
2023-05-02T07:20:06.105Z,4.93
2023-05-02T07:22:33.292Z,5.70
2023-05-02T07:25:01.725Z,6.97
2023-05-02T07:27:28.997Z,8.00
2023-05-02T07:29:56.328Z,5.40
2023-05-02T07:32:26.202Z,6.47
2023-05-02T07:34:57.090Z,5.97
2023-05-02T07:37:24.346Z,4.82
2023-05-02T07:39:51.609Z,4.95
2023-05-02T07:42:18.889Z,4.25
2023-05-02T07:44:46.159Z,5.15
2023-05-02T07:47:13.296Z,5.82
2023-05-02T07:49:40.449Z,4.97
2023-05-02T07:52:07.699Z,5.93
2023-05-02T07:54:35.764Z,6.03
2023-05-02T07:57:03.431Z,4.95
2023-05-02T07:59:32.055Z,5.70
2023-05-02T08:01:59.360Z,5.50
2023-05-02T08:04:27.245Z,6.95
2023-05-02T08:06:55.851Z,5.70
2023-05-02T08:09:23.012Z,5.68
2023-05-02T08:11:50.386Z,7.32
2023-05-02T08:14:17.569Z,4.97
2023-05-02T08:16:46.434Z,7.93
2023-05-02T08:19:14.043Z,6.68
2023-05-02T08:21:41.182Z,7.28
2023-05-02T08:24:08.347Z,5.28
2023-05-02T08:26:35.488Z,5.28
2023-05-02T08:29:04.523Z,5.95
2023-05-02T08:31:31.848Z,5.95
2023-05-02T08:33:59.045Z,5.88
2023-05-02T08:36:29.048Z,6.10
2023-05-02T08:38:56.245Z,6.03
2023-05-02T08:41:23.549Z,6.32
2023-05-02T08:43:50.897Z,6.20
2023-05-02T08:46:18.786Z,6.28
2023-05-02T08:48:49.646Z,6.47
2023-05-02T08:53:45.082Z,5.57
2023-05-02T08:56:12.875Z,5.80
2023-05-02T08:58:40.810Z,5.70
2023-05-02T09:01:14.933Z,5.22
2023-05-02T09:03:43.837Z,8.18
2023-05-02T09:06:15.098Z,5.15
2023-05-02T09:08:43.553Z,4.95
2023-05-02T09:11:11.344Z,5.82
2023-05-02T09:13:48.590Z,5.20
2023-05-02T09:16:15.854Z,5.45
2023-05-02T09:18:49.970Z,4.93
2023-05-02T09:21:20.705Z,5.07
2023-05-02T09:23:49.459Z,6.72
2023-05-02T09:26:17.877Z,5.88
2023-05-02T09:28:46.285Z,7.82
2023-05-02T09:31:16.891Z,6.47
2023-05-02T09:33:46.670Z,7.53
2023-05-02T09:36:14.708Z,6.63
2023-05-02T09:38:42.925Z,5.78
2023-05-02T09:41:10.623Z,6.88
2023-05-02T09:43:38.354Z,6.47
2023-05-02T09:46:06.907Z,6.55
2023-05-02T09:48:51.850Z,5.72
2023-05-02T09:51:19.316Z,6.13
2023-05-02T09:53:46.666Z,6.40
2023-05-02T09:56:14.048Z,6.70
2023-05-02T09:58:41.357Z,7.50
2023-05-02T10:01:08.618Z,6.40
2023-05-02T10:03:38.417Z,8.15
2023-05-02T10:06:05.924Z,7.30
2023-05-02T10:08:34.118Z,6.65
2023-05-02T10:11:01.487Z,8.10
2023-05-02T10:13:32.281Z,6.25
2023-05-02T10:16:01.477Z,7.47
2023-05-02T10:18:37.860Z,35.05
2023-05-02T10:21:12.511Z,8.00
2023-05-02T10:23:44.014Z,7.40
2023-05-02T10:26:16.240Z,9.38
2023-05-02T10:28:43.582Z,9.45
2023-05-02T10:31:12.191Z,7.60
2023-05-02T10:33:39.487Z,7.20
2023-05-02T10:36:08.804Z,6.72
2023-05-02T10:38:37.226Z,6.25
2023-05-02T10:41:07.649Z,8.80
2023-05-02T10:43:35.894Z,9.07
2023-05-02T10:46:03.621Z,8.43
2023-05-02T10:48:31.097Z,7.97
2023-05-02T10:51:01.149Z,6.10
2023-05-02T10:53:29.651Z,8.75
2023-05-02T10:56:09.111Z,7.00
2023-05-02T10:58:36.365Z,6.18
2023-05-02T11:01:23.806Z,7.75
2023-05-02T11:03:54.932Z,6.00
2023-05-02T11:06:22.056Z,7.82
2023-05-02T11:08:49.223Z,9.52
2023-05-02T11:11:39.353Z,8.60
2023-05-02T11:14:06.531Z,7.85
2023-05-02T11:16:52.580Z,11.40
2023-05-02T11:19:19.750Z,8.40
2023-05-02T11:21:46.867Z,9.18
2023-05-02T11:24:32.692Z,9.07
2023-05-02T11:27:22.767Z,8.55
2023-05-02T11:29:53.599Z,8.82
2023-05-02T11:32:20.802Z,7.03
2023-05-02T11:34:48.112Z,9.27
2023-05-02T11:37:15.753Z,9.50
2023-05-02T11:39:43.237Z,8.30
2023-05-02T11:42:10.677Z,8.52
2023-05-02T11:44:55.812Z,9.40
2023-05-02T11:47:22.951Z,11.10
2023-05-02T11:49:50.239Z,7.95
2023-05-02T11:52:17.354Z,8.45
2023-05-02T11:54:44.551Z,9.82
2023-05-02T11:57:12.458Z,11.52
2023-05-02T11:59:55.912Z,10.50
2023-05-02T12:02:36.476Z,9.25
2023-05-02T12:05:08.123Z,7.18
2023-05-02T12:07:39.147Z,8.40
2023-05-02T12:10:07.017Z,7.88
2023-05-02T12:12:34.629Z,8.05
2023-05-02T12:15:09.255Z,8.32
2023-05-02T12:17:44.159Z,8.98
2023-05-02T12:22:38.731Z,9.20
2023-05-02T12:25:06.368Z,8.27
2023-05-02T12:27:34.602Z,6.85
2023-05-02T12:30:02.877Z,7.18
2023-05-02T12:32:31.313Z,7.55
2023-05-02T12:34:58.996Z,8.15
2023-05-02T12:37:27.610Z,8.27
2023-05-02T12:39:55.539Z,5.88
2023-05-02T12:42:23.735Z,8.18
2023-05-02T12:44:52.246Z,6.45
2023-05-02T12:47:19.993Z,5.15
2023-05-02T12:49:51.063Z,6.72
2023-05-02T12:52:18.902Z,6.43
2023-05-02T12:54:46.599Z,6.45
2023-05-02T12:57:24.807Z,6.95
2023-05-02T12:59:54.686Z,6.15
2023-05-02T13:02:22.749Z,5.22
2023-05-02T13:04:50.078Z,5.32
2023-05-02T13:07:17.253Z,6.38
2023-05-02T13:09:44.434Z,7.03
2023-05-02T13:12:11.569Z,5.70
2023-05-02T13:14:39.193Z,8.38
2023-05-02T13:17:08.713Z,8.07
2023-05-02T13:19:37.382Z,7.63
2023-05-02T13:22:06.110Z,4.60
2023-05-02T13:24:33.381Z,7.68
2023-05-02T13:27:00.495Z,4.47
2023-05-02T13:29:28.067Z,4.05
2023-05-02T13:31:55.283Z,5.20
2023-05-02T13:34:22.558Z,4.72
2023-05-02T13:36:49.822Z,4.45
2023-05-02T13:39:17.067Z,4.70
2023-05-02T13:41:44.192Z,5.35
2023-05-02T13:44:11.286Z,4.55
2023-05-02T13:46:38.590Z,4.60
2023-05-02T13:49:06.000Z,4.75
2023-05-02T13:51:33.670Z,4.22
2023-05-02T13:54:01.190Z,5.45
2023-05-02T13:56:28.462Z,4.95
2023-05-02T13:58:55.818Z,4.78
2023-05-02T14:01:23.047Z,4.85
2023-05-02T14:03:51.924Z,5.38
2023-05-02T14:06:19.195Z,4.57
2023-05-02T14:08:46.420Z,6.50
2023-05-02T14:11:13.740Z,4.13
2023-05-02T14:13:40.912Z,7.53
2023-05-02T14:16:08.080Z,6.88
2023-05-02T14:18:35.326Z,7.05
2023-05-02T14:21:04.061Z,4.22
2023-05-02T14:23:31.270Z,3.97
2023-05-02T14:25:58.448Z,3.83
2023-05-02T14:28:27.132Z,3.55
2023-05-02T14:30:54.360Z,5.10
2023-05-02T14:33:22.405Z,5.75
2023-05-02T14:35:49.699Z,7.47
2023-05-02T14:38:16.866Z,5.05
2023-05-02T14:40:44.249Z,5.68
2023-05-02T14:43:14.296Z,4.55
2023-05-02T14:45:41.484Z,6.30
2023-05-02T14:48:09.455Z,5.05
2023-05-02T14:50:37.713Z,8.38
2023-05-02T14:53:04.835Z,8.93
2023-05-02T14:55:36.434Z,8.30
2023-05-02T14:58:03.539Z,8.48
2023-05-02T15:00:30.678Z,8.20
2023-05-02T15:02:57.853Z,5.63
2023-05-02T15:05:25.404Z,5.15
2023-05-02T15:07:52.583Z,6.32
2023-05-02T15:10:19.708Z,5.07
2023-05-02T15:12:50.736Z,4.22
2023-05-02T15:15:25.277Z,3.72
2023-05-02T15:17:52.996Z,4.13
2023-05-02T15:20:20.950Z,4.35
2023-05-02T15:22:48.120Z,3.90
2023-05-02T15:25:15.866Z,5.30
2023-05-02T15:27:43.049Z,3.50
2023-05-02T15:30:10.381Z,3.58
2023-05-02T15:32:37.700Z,3.65
2023-05-02T15:35:08.803Z,3.08
2023-05-02T15:37:36.228Z,3.40
2023-05-02T15:40:04.323Z,3.10
2023-05-02T15:42:31.736Z,4.57
2023-05-02T15:44:59.080Z,3.65
2023-05-02T15:47:26.269Z,4.32
2023-05-02T15:49:55.034Z,4.50
2023-05-02T15:52:22.376Z,3.85
2023-05-02T15:54:51.543Z,4.07
2023-05-02T15:57:19.549Z,4.53
2023-05-02T15:59:46.633Z,3.88
2023-05-02T16:02:14.703Z,4.95
2023-05-02T16:04:43.088Z,4.15
2023-05-02T16:07:10.641Z,4.47
2023-05-02T16:09:38.764Z,3.85
2023-05-02T16:12:07.233Z,4.43
2023-05-02T16:14:34.841Z,6.22
2023-05-02T16:17:02.082Z,4.43
2023-05-02T16:19:29.257Z,5.25
2023-05-02T16:21:56.488Z,4.07
2023-05-02T16:24:23.755Z,4.97
2023-05-02T16:26:50.997Z,6.13
2023-05-02T16:29:18.126Z,4.88
2023-05-02T16:31:45.439Z,4.22
2023-05-02T16:34:12.737Z,4.85
2023-05-02T16:36:39.967Z,6.32
2023-05-02T16:39:07.148Z,3.97
2023-05-02T16:41:36.163Z,5.07
2023-05-02T16:44:03.348Z,5.30
2023-05-02T16:46:31.914Z,4.70
2023-05-02T16:48:59.280Z,5.32
2023-05-02T16:51:26.490Z,5.10
2023-05-02T16:53:53.628Z,5.03
2023-05-02T16:56:21.483Z,5.90
2023-05-02T16:58:48.740Z,5.57
2023-05-02T17:01:17.281Z,8.65
2023-05-02T17:03:44.461Z,6.97
2023-05-02T17:06:11.675Z,7.30
2023-05-02T17:08:39.140Z,6.60
2023-05-02T17:11:07.936Z,8.73
2023-05-02T17:13:35.257Z,6.70
2023-05-02T17:16:03.427Z,6.72
2023-05-02T17:18:30.698Z,6.20
2023-05-02T17:20:57.891Z,7.75
2023-05-02T17:23:25.342Z,6.97
2023-05-02T17:25:52.498Z,7.00
2023-05-02T17:28:20.965Z,9.77
2023-05-02T17:30:48.430Z,6.40
2023-05-02T17:33:15.912Z,7.43
2023-05-02T17:35:43.048Z,5.95
2023-05-02T17:38:10.322Z,7.25
2023-05-02T17:40:38.207Z,6.15
2023-05-02T17:43:05.715Z,5.78
2023-05-02T17:45:32.850Z,7.20
2023-05-02T17:48:01.930Z,8.77
2023-05-02T17:50:29.922Z,7.82
2023-05-02T17:52:58.573Z,6.38
2023-05-02T17:55:25.776Z,4.45
2023-05-02T17:57:53.053Z,5.78
2023-05-02T18:00:20.252Z,6.47
2023-05-02T18:02:47.393Z,5.07
2023-05-02T18:05:14.560Z,6.15
2023-05-02T18:07:41.678Z,5.82
2023-05-02T18:10:09.005Z,5.32
2023-05-02T18:12:36.388Z,5.28
2023-05-02T18:15:05.044Z,7.40
2023-05-02T18:17:32.836Z,5.20
2023-05-02T18:20:00.394Z,4.30
2023-05-02T18:22:27.947Z,5.70
2023-05-02T18:24:56.212Z,4.82
2023-05-02T18:27:23.410Z,4.65
2023-05-02T18:29:50.591Z,4.60
2023-05-02T18:32:17.699Z,4.55
2023-05-02T18:34:44.844Z,4.00
2023-05-02T18:37:12.406Z,5.35
2023-05-02T18:39:39.522Z,4.65
2023-05-02T18:42:08.254Z,4.30
2023-05-02T18:44:35.453Z,6.47
2023-05-02T18:47:02.700Z,5.15
2023-05-02T18:49:29.804Z,6.10
2023-05-02T18:51:56.913Z,5.13
2023-05-02T18:54:24.383Z,6.32
2023-05-02T18:56:51.610Z,6.25
2023-05-02T18:59:18.988Z,5.25
2023-05-02T19:01:47.898Z,6.22
2023-05-02T19:04:15.046Z,6.00
2023-05-02T19:06:42.409Z,9.75
2023-05-02T19:09:09.676Z,6.60
2023-05-02T19:11:36.837Z,6.28
2023-05-02T19:14:04.007Z,7.20
2023-05-02T19:16:31.614Z,5.70
2023-05-02T19:18:58.832Z,8.88
2023-05-02T19:21:26.126Z,11.70
2023-05-02T19:23:53.290Z,12.88
2023-05-02T19:26:20.627Z,8.30
2023-05-02T19:28:47.838Z,6.68
2023-05-02T19:31:17.364Z,7.18
2023-05-02T19:33:50.997Z,6.75
2023-05-02T19:36:24.584Z,8.23
2023-05-02T19:38:53.695Z,10.77
2023-05-02T19:41:24.828Z,9.52
2023-05-02T19:43:52.065Z,7.97
2023-05-02T19:46:19.426Z,8.40
2023-05-02T19:48:46.712Z,8.05
2023-05-02T19:51:13.945Z,8.23
2023-05-02T19:53:41.045Z,7.97
2023-05-02T19:56:08.367Z,8.10
2023-05-02T19:58:35.785Z,8.68
2023-05-02T20:01:05.418Z,9.07
2023-05-02T20:03:34.542Z,8.13
2023-05-02T20:06:01.972Z,10.10
2023-05-02T20:08:30.099Z,8.38
2023-05-02T20:10:57.554Z,11.20
2023-05-02T20:13:24.772Z,8.50
2023-05-02T20:15:52.555Z,11.38
2023-05-02T20:18:20.174Z,10.63
2023-05-02T20:20:47.297Z,10.40
2023-05-02T20:23:14.490Z,9.57
2023-05-02T20:25:42.745Z,9.02
2023-05-02T20:28:10.251Z,9.40
2023-05-02T20:30:39.189Z,7.75
2023-05-02T20:33:14.661Z,9.82
2023-05-02T20:35:43.129Z,8.13
2023-05-02T20:38:10.372Z,10.75
2023-05-02T20:40:42.596Z,9.93
2023-05-02T20:43:09.873Z,8.68
2023-05-02T20:45:38.710Z,9.63
2023-05-02T20:48:06.501Z,9.18
2023-05-02T20:50:33.823Z,10.07
2023-05-02T20:53:01.025Z,8.60
2023-05-02T20:55:28.390Z,9.63
2023-05-02T20:57:55.584Z,10.13
2023-05-02T21:00:22.861Z,8.60
2023-05-02T21:02:50.280Z,8.23
2023-05-02T21:05:17.626Z,11.95
2023-05-02T21:07:45.024Z,9.57
2023-05-02T21:10:12.249Z,9.40
2023-05-02T21:12:39.501Z,11.48
2023-05-02T21:15:07.406Z,10.77
2023-05-02T21:17:34.770Z,8.40
2023-05-02T21:20:02.127Z,11.00
2023-05-02T21:22:29.611Z,10.07
2023-05-02T21:24:56.745Z,8.68
2023-05-02T21:27:24.024Z,9.80
2023-05-02T21:29:51.332Z,10.25
2023-05-02T21:32:18.419Z,9.35
2023-05-02T21:34:45.839Z,9.60
2023-05-02T21:37:13.024Z,9.23
2023-05-02T21:39:40.196Z,10.50
2023-05-02T21:42:07.303Z,13.75
2023-05-02T21:44:34.444Z,10.02
2023-05-02T21:47:01.629Z,10.40
2023-05-02T21:49:31.136Z,11.98
2023-05-02T21:51:58.800Z,9.98
2023-05-02T21:54:25.960Z,10.68
2023-05-02T21:56:56.097Z,12.10
2023-05-02T21:59:23.255Z,11.75
2023-05-02T22:01:50.663Z,13.25
2023-05-02T22:04:17.984Z,12.68
2023-05-02T22:06:51.270Z,12.32
2023-05-02T22:09:18.823Z,12.05
2023-05-02T22:11:46.222Z,12.90
2023-05-02T22:14:13.396Z,13.50
2023-05-02T22:16:40.545Z,11.52
2023-05-02T22:19:07.970Z,14.55
2023-05-02T22:21:35.083Z,10.20
2023-05-02T22:24:02.205Z,10.30
2023-05-02T22:26:29.322Z,13.25
2023-05-02T22:28:56.499Z,13.32
2023-05-02T22:31:23.608Z,10.32
2023-05-02T22:33:51.105Z,10.23
2023-05-02T22:36:18.376Z,11.15
2023-05-02T22:38:45.486Z,11.00
2023-05-02T22:41:12.592Z,10.02
2023-05-02T22:43:39.692Z,10.23
2023-05-02T22:46:07.050Z,10.35
2023-05-02T22:48:34.274Z,12.40
2023-05-02T22:51:01.543Z,12.93
2023-05-02T22:53:30.085Z,11.38
2023-05-02T22:55:57.217Z,11.18
2023-05-02T22:58:24.397Z,10.43
2023-05-02T23:00:51.503Z,9.90
2023-05-02T23:03:18.800Z,11.35
2023-05-02T23:05:46.029Z,9.40
2023-05-02T23:08:13.155Z,12.30
2023-05-02T23:10:40.460Z,9.27
2023-05-02T23:13:07.641Z,9.00
2023-05-02T23:15:34.765Z,11.63
2023-05-02T23:18:01.888Z,10.05
2023-05-02T23:20:29.020Z,9.95
2023-05-02T23:22:56.278Z,8.48
2023-05-02T23:25:23.585Z,7.70
2023-05-02T23:27:51.337Z,11.57
2023-05-02T23:30:18.548Z,11.02
2023-05-02T23:32:47.139Z,9.05
2023-05-02T23:35:14.430Z,8.32
2023-05-02T23:37:41.736Z,9.38
2023-05-02T23:40:09.289Z,8.65
2023-05-02T23:42:39.918Z,8.45
2023-05-02T23:45:10.691Z,12.52
2023-05-02T23:47:38.344Z,10.48
2023-05-02T23:50:06.049Z,6.80
2023-05-02T23:52:33.518Z,7.88
2023-05-02T23:55:00.669Z,8.50
2023-05-02T23:57:29.860Z,8.10
2023-05-02T23:59:57.240Z,8.02
